sensor_id;sensor_type;location;lat;lon;timestamp;pressure;altitude;pressure_sealevel;temperature;humidity
3917;BME280;1973;50.518;7.318;2022-12-07T00:01:45;101093.91;;;5.00;100.00
3917;BME280;1973;50.518;7.318;2022-12-07T00:04:14;101091.19;;;5.00;100.00
3917;BME280;1973;50.518;7.318;2022-12-07T00:06:43;101082.16;;;5.00;100.00
3917;BME280;1973;50.518;7.318;2022-12-07T00:09:13;101082.84;;;5.02;100.00
3917;BME280;1973;50.518;7.318;2022-12-07T00:11:39;101080.97;;;5.02;100.00
3917;BME280;1973;50.518;7.318;2022-12-07T00:14:10;101079.06;;;5.03;100.00
3917;BME280;1973;50.518;7.318;2022-12-07T00:16:36;101075.53;;;5.02;100.00
3917;BME280;1973;50.518;7.318;2022-12-07T00:19:04;101069.00;;;5.03;100.00
3917;BME280;1973;50.518;7.318;2022-12-07T00:21:32;101071.75;;;5.03;100.00
3917;BME280;1973;50.518;7.318;2022-12-07T00:24:00;101071.75;;;5.03;100.00
3917;BME280;1973;50.518;7.318;2022-12-07T00:26:34;101072.44;;;5.05;100.00
3917;BME280;1973;50.518;7.318;2022-12-07T00:29:07;101068.84;;;5.05;100.00
3917;BME280;1973;50.518;7.318;2022-12-07T00:31:36;101068.69;;;5.06;100.00
3917;BME280;1973;50.518;7.318;2022-12-07T00:34:06;101069.72;;;5.05;100.00
3917;BME280;1973;50.518;7.318;2022-12-07T00:36:33;101058.09;;;5.03;100.00
3917;BME280;1973;50.518;7.318;2022-12-07T00:39:00;101067.34;;;5.02;100.00
3917;BME280;1973;50.518;7.318;2022-12-07T00:41:27;101059.97;;;5.03;100.00
3917;BME280;1973;50.518;7.318;2022-12-07T00:43:54;101050.97;;;5.02;100.00
3917;BME280;1973;50.518;7.318;2022-12-07T00:46:21;101050.97;;;5.02;100.00
3917;BME280;1973;50.518;7.318;2022-12-07T00:48:49;101050.09;;;5.02;100.00
3917;BME280;1973;50.518;7.318;2022-12-07T00:51:18;101054.72;;;5.01;100.00
3917;BME280;1973;50.518;7.318;2022-12-07T00:53:46;101053.69;;;5.02;100.00
3917;BME280;1973;50.518;7.318;2022-12-07T00:56:19;101050.97;;;5.02;100.00
3917;BME280;1973;50.518;7.318;2022-12-07T00:58:54;101055.56;;;5.02;100.00
3917;BME280;1973;50.518;7.318;2022-12-07T01:01:22;101055.56;;;5.02;100.00
3917;BME280;1973;50.518;7.318;2022-12-07T01:03:50;101057.25;;;5.03;100.00
3917;BME280;1973;50.518;7.318;2022-12-07T01:06:18;101043.44;;;5.04;100.00
3917;BME280;1973;50.518;7.318;2022-12-07T01:08:45;101038.84;;;5.05;100.00
3917;BME280;1973;50.518;7.318;2022-12-07T01:11:14;101038.50;;;5.08;100.00
3917;BME280;1973;50.518;7.318;2022-12-07T01:13:42;101041.22;;;5.08;100.00
3917;BME280;1973;50.518;7.318;2022-12-07T01:16:11;101039.34;;;5.08;100.00
3917;BME280;1973;50.518;7.318;2022-12-07T01:18:38;101043.78;;;5.09;100.00
3917;BME280;1973;50.518;7.318;2022-12-07T01:21:08;101055.38;;;5.11;100.00
3917;BME280;1973;50.518;7.318;2022-12-07T01:23:36;101049.91;;;5.11;100.00
3917;BME280;1973;50.518;7.318;2022-12-07T01:26:05;101039.69;;;5.13;100.00
3917;BME280;1973;50.518;7.318;2022-12-07T01:28:32;101041.56;;;5.13;100.00
3917;BME280;1973;50.518;7.318;2022-12-07T01:33:29;101049.75;;;5.13;100.00
3917;BME280;1973;50.518;7.318;2022-12-07T01:38:50;101046.16;;;5.12;100.00
3917;BME280;1973;50.518;7.318;2022-12-07T01:41:20;101041.38;;;5.14;100.00
3917;BME280;1973;50.518;7.318;2022-12-07T01:46:51;101036.97;;;5.13;100.00
3917;BME280;1973;50.518;7.318;2022-12-07T01:49:24;101040.34;;;5.15;100.00
3917;BME280;1973;50.518;7.318;2022-12-07T01:51:57;101038.31;;;5.17;100.00
3917;BME280;1973;50.518;7.318;2022-12-07T01:54:24;101045.44;;;5.18;100.00
3917;BME280;1973;50.518;7.318;2022-12-07T01:56:54;101028.72;;;5.21;100.00
3917;BME280;1973;50.518;7.318;2022-12-07T01:59:24;101034.38;;;5.20;100.00
3917;BME280;1973;50.518;7.318;2022-12-07T02:01:54;101035.03;;;5.22;100.00
3917;BME280;1973;50.518;7.318;2022-12-07T02:04:22;101030.44;;;5.22;100.00
3917;BME280;1973;50.518;7.318;2022-12-07T02:06:50;101032.16;;;5.23;100.00
3917;BME280;1973;50.518;7.318;2022-12-07T02:09:16;101037.59;;;5.23;100.00
3917;BME280;1973;50.518;7.318;2022-12-07T02:11:43;101041.00;;;5.25;100.00
3917;BME280;1973;50.518;7.318;2022-12-07T02:14:09;101032.81;;;5.25;100.00
3917;BME280;1973;50.518;7.318;2022-12-07T02:16:38;101041.84;;;5.26;100.00
3917;BME280;1973;50.518;7.318;2022-12-07T02:21:55;101022.59;;;5.27;100.00
3917;BME280;1973;50.518;7.318;2022-12-07T02:24:37;101021.53;;;5.28;100.00
3917;BME280;1973;50.518;7.318;2022-12-07T02:30:10;101019.50;;;5.30;100.00
3917;BME280;1973;50.518;7.318;2022-12-07T02:32:51;101022.88;;;5.32;100.00
3917;BME280;1973;50.518;7.318;2022-12-07T02:35:34;101023.56;;;5.34;100.00
3917;BME280;1973;50.518;7.318;2022-12-07T02:38:15;101018.13;;;5.34;100.00
3917;BME280;1973;50.518;7.318;2022-12-07T02:40:49;101019.63;;;5.37;100.00
3917;BME280;1973;50.518;7.318;2022-12-07T02:43:23;101018.63;;;5.38;100.00
3917;BME280;1973;50.518;7.318;2022-12-07T02:45:52;101016.53;;;5.40;100.00
3917;BME280;1973;50.518;7.318;2022-12-07T02:48:20;101023.72;;;5.41;100.00
3917;BME280;1973;50.518;7.318;2022-12-07T02:50:51;101021.84;;;5.42;100.00
3917;BME280;1973;50.518;7.318;2022-12-07T02:53:38;101011.94;;;5.40;100.00
3917;BME280;1973;50.518;7.318;2022-12-07T03:01:50;101006.69;;;5.39;100.00
3917;BME280;1973;50.518;7.318;2022-12-07T03:05:01;101005.81;;;5.38;100.00
3917;BME280;1973;50.518;7.318;2022-12-07T03:10:24;100998.28;;;5.40;100.00
3917;BME280;1973;50.518;7.318;2022-12-07T03:13:15;101009.03;;;5.42;100.00
3917;BME280;1973;50.518;7.318;2022-12-07T03:18:36;101004.44;;;5.43;100.00
3917;BME280;1973;50.518;7.318;2022-12-07T03:21:10;101006.13;;;5.44;100.00
3917;BME280;1973;50.518;7.318;2022-12-07T03:23:41;101002.38;;;5.45;100.00
3917;BME280;1973;50.518;7.318;2022-12-07T03:26:12;100996.91;;;5.45;100.00
3917;BME280;1973;50.518;7.318;2022-12-07T03:28:44;100997.75;;;5.45;100.00
3917;BME280;1973;50.518;7.318;2022-12-07T03:31:23;100996.06;;;5.44;100.00
3917;BME280;1973;50.518;7.318;2022-12-07T03:34:11;101000.50;;;5.45;100.00
3917;BME280;1973;50.518;7.318;2022-12-07T03:36:47;101000.66;;;5.44;100.00
3917;BME280;1973;50.518;7.318;2022-12-07T03:39:37;100994.53;;;5.42;100.00
3917;BME280;1973;50.518;7.318;2022-12-07T03:42:07;100991.44;;;5.45;100.00
3917;BME280;1973;50.518;7.318;2022-12-07T03:44:36;100992.31;;;5.45;100.00
3917;BME280;1973;50.518;7.318;2022-12-07T03:47:07;100993.16;;;5.46;100.00
3917;BME280;1973;50.518;7.318;2022-12-07T03:49:41;100993.16;;;5.46;100.00
3917;BME280;1973;50.518;7.318;2022-12-07T03:52:18;100995.03;;;5.45;100.00
3917;BME280;1973;50.518;7.318;2022-12-07T03:57:51;100992.31;;;5.45;100.00
3917;BME280;1973;50.518;7.318;2022-12-07T04:00:19;100986.00;;;5.45;100.00
3917;BME280;1973;50.518;7.318;2022-12-07T04:02:45;100993.16;;;5.46;100.00
3917;BME280;1973;50.518;7.318;2022-12-07T04:05:13;100993.16;;;5.46;100.00
3917;BME280;1973;50.518;7.318;2022-12-07T04:07:40;100991.09;;;5.48;100.00
3917;BME280;1973;50.518;7.318;2022-12-07T04:10:07;100980.16;;;5.48;100.00
3917;BME280;1973;50.518;7.318;2022-12-07T04:12:34;100985.63;;;5.48;100.00
3917;BME280;1973;50.518;7.318;2022-12-07T04:15:00;100989.06;;;5.50;100.00
3917;BME280;1973;50.518;7.318;2022-12-07T04:17:26;100979.81;;;5.51;100.00
3917;BME280;1973;50.518;7.318;2022-12-07T04:19:53;100981.72;;;5.50;100.00
3917;BME280;1973;50.518;7.318;2022-12-07T04:22:19;100984.25;;;5.52;100.00
3917;BME280;1973;50.518;7.318;2022-12-07T04:24:46;100986.97;;;5.52;100.00
3917;BME280;1973;50.518;7.318;2022-12-07T04:27:12;100983.22;;;5.53;100.00
3917;BME280;1973;50.518;7.318;2022-12-07T04:29:39;100989.53;;;5.53;100.00
3917;BME280;1973;50.518;7.318;2022-12-07T04:32:05;100988.69;;;5.53;100.00
3917;BME280;1973;50.518;7.318;2022-12-07T04:34:31;100976.06;;;5.52;100.00
3917;BME280;1973;50.518;7.318;2022-12-07T04:36:58;100976.91;;;5.52;100.00
3917;BME280;1973;50.518;7.318;2022-12-07T04:39:29;100977.75;;;5.53;100.00
3917;BME280;1973;50.518;7.318;2022-12-07T04:41:57;100979.47;;;5.54;100.00
3917;BME280;1973;50.518;7.318;2022-12-07T04:44:25;100984.25;;;5.52;100.00
3917;BME280;1973;50.518;7.318;2022-12-07T04:46:52;100984.25;;;5.52;100.00
3917;BME280;1973;50.518;7.318;2022-12-07T04:49:18;100983.22;;;5.53;100.00
3917;BME280;1973;50.518;7.318;2022-12-07T04:51:46;100979.47;;;5.54;100.00
3917;BME280;1973;50.518;7.318;2022-12-07T04:54:14;100982.00;;;5.55;100.00
3917;BME280;1973;50.518;7.318;2022-12-07T04:56:41;100980.13;;;5.56;100.00
3917;BME280;1973;50.518;7.318;2022-12-07T04:59:09;100979.97;;;5.57;100.00
3917;BME280;1973;50.518;7.318;2022-12-07T05:01:35;100988.81;;;5.59;100.00
3917;BME280;1973;50.518;7.318;2022-12-07T05:04:02;100976.03;;;5.60;100.00
3917;BME280;1973;50.518;7.318;2022-12-07T05:06:29;100983.19;;;5.61;100.00
3917;BME280;1973;50.518;7.318;2022-12-07T05:08:56;100981.31;;;5.61;100.00
3917;BME280;1973;50.518;7.318;2022-12-07T05:11:22;100976.69;;;5.62;100.00
3917;BME280;1973;50.518;7.318;2022-12-07T05:14:14;100979.06;;;5.65;100.00
3917;BME280;1973;50.518;7.318;2022-12-07T05:16:43;100981.81;;;5.65;100.00
3917;BME280;1973;50.518;7.318;2022-12-07T05:19:10;100974.47;;;5.65;100.00
3917;BME280;1973;50.518;7.318;2022-12-07T05:21:38;100979.06;;;5.65;100.00
3917;BME280;1973;50.518;7.318;2022-12-07T05:24:05;100979.72;;;5.67;100.00
3917;BME280;1973;50.518;7.318;2022-12-07T05:26:32;100977.50;;;5.70;100.00
3917;BME280;1973;50.518;7.318;2022-12-07T05:28:59;100980.91;;;5.72;100.00
3917;BME280;1973;50.518;7.318;2022-12-07T05:31:26;100983.28;;;5.75;100.00
3917;BME280;1973;50.518;7.318;2022-12-07T05:33:53;100980.34;;;5.77;100.00
3917;BME280;1973;50.518;7.318;2022-12-07T05:36:20;100983.75;;;5.79;100.00
3917;BME280;1973;50.518;7.318;2022-12-07T05:38:47;100984.41;;;5.81;100.00
3917;BME280;1973;50.518;7.318;2022-12-07T05:41:15;100982.38;;;5.83;100.00
3917;BME280;1973;50.518;7.318;2022-12-07T05:44:01;100977.94;;;5.82;100.00
3917;BME280;1973;50.518;7.318;2022-12-07T05:46:28;100979.66;;;5.83;100.00
3917;BME280;1973;50.518;7.318;2022-12-07T05:48:55;100965.78;;;5.84;100.00
3917;BME280;1973;50.518;7.318;2022-12-07T05:51:21;100965.78;;;5.84;100.00
3917;BME280;1973;50.518;7.318;2022-12-07T05:53:48;100966.66;;;5.85;100.00
3917;BME280;1973;50.518;7.318;2022-12-07T05:56:14;100967.34;;;5.87;100.00
3917;BME280;1973;50.518;7.318;2022-12-07T05:58:40;100969.25;;;5.86;100.00
3917;BME280;1973;50.518;7.318;2022-12-07T06:01:25;100973.84;;;5.86;100.00
3917;BME280;1973;50.518;7.318;2022-12-07T06:03:52;100977.22;;;5.88;100.00
3917;BME280;1973;50.518;7.318;2022-12-07T06:06:18;100973.47;;;5.89;100.00
3917;BME280;1973;50.518;7.318;2022-12-07T06:08:45;100969.72;;;5.90;100.00
3917;BME280;1973;50.518;7.318;2022-12-07T06:11:11;100977.91;;;5.90;100.00
3917;BME280;1973;50.518;7.318;2022-12-07T06:13:56;100973.47;;;5.89;100.00
3917;BME280;1973;50.518;7.318;2022-12-07T06:16:22;100970.59;;;5.91;100.00
3917;BME280;1973;50.518;7.318;2022-12-07T06:18:49;100968.69;;;5.91;100.00
3917;BME280;1973;50.518;7.318;2022-12-07T06:21:15;100978.56;;;5.92;100.00
3917;BME280;1973;50.518;7.318;2022-12-07T06:23:42;100977.56;;;5.93;100.00
3917;BME280;1973;50.518;7.318;2022-12-07T06:26:08;100977.56;;;5.93;100.00
3917;BME280;1973;50.518;7.318;2022-12-07T06:28:35;100977.56;;;5.93;100.00
3917;BME280;1973;50.518;7.318;2022-12-07T06:31:02;100982.16;;;5.93;100.00
3917;BME280;1973;50.518;7.318;2022-12-07T06:33:28;100979.44;;;5.93;100.00
3917;BME280;1973;50.518;7.318;2022-12-07T06:35:55;100985.75;;;5.93;100.00
3917;BME280;1973;50.518;7.318;2022-12-07T06:38:22;100987.47;;;5.94;100.00
3917;BME280;1973;50.518;7.318;2022-12-07T06:40:48;100990.34;;;5.93;100.00
3917;BME280;1973;50.518;7.318;2022-12-07T06:43:15;100986.59;;;5.94;100.00
3917;BME280;1973;50.518;7.318;2022-12-07T06:45:41;100991.22;;;5.93;100.00
3917;BME280;1973;50.518;7.318;2022-12-07T06:48:08;100992.91;;;5.94;100.00
3917;BME280;1973;50.518;7.318;2022-12-07T06:50:35;100994.13;;;5.92;100.00
3917;BME280;1973;50.518;7.318;2022-12-07T06:53:01;100998.75;;;5.91;100.00
3917;BME280;1973;50.518;7.318;2022-12-07T06:55:28;100998.38;;;5.94;100.00
3917;BME280;1973;50.518;7.318;2022-12-07T06:57:54;100997.00;;;5.98;100.00
3917;BME280;1973;50.518;7.318;2022-12-07T07:00:21;100998.34;;;6.02;100.00
3917;BME280;1973;50.518;7.318;2022-12-07T07:02:47;100991.44;;;6.06;100.00
3917;BME280;1973;50.518;7.318;2022-12-07T07:05:15;100995.91;;;6.07;100.00
3917;BME280;1973;50.518;7.318;2022-12-07T07:07:42;100998.63;;;6.07;100.00
3917;BME280;1973;50.518;7.318;2022-12-07T07:10:29;100999.31;;;6.09;100.00
3917;BME280;1973;50.518;7.318;2022-12-07T07:12:56;101004.41;;;6.12;100.00
3917;BME280;1973;50.518;7.318;2022-12-07T07:15:23;101011.22;;;6.16;100.00
3917;BME280;1973;50.518;7.318;2022-12-07T07:17:50;101019.03;;;6.19;100.00
3917;BME280;1973;50.518;7.318;2022-12-07T07:20:16;101020.75;;;6.20;100.00
3917;BME280;1973;50.518;7.318;2022-12-07T07:22:43;101010.16;;;6.17;100.00
3917;BME280;1973;50.518;7.318;2022-12-07T07:25:10;101012.25;;;6.15;100.00
3917;BME280;1973;50.518;7.318;2022-12-07T07:27:36;101021.47;;;6.14;100.00
3917;BME280;1973;50.518;7.318;2022-12-07T07:30:04;101013.81;;;6.10;100.00
3917;BME280;1973;50.518;7.318;2022-12-07T07:32:30;101021.19;;;6.09;100.00
3917;BME280;1973;50.518;7.318;2022-12-07T07:34:57;101018.63;;;6.08;100.00
3917;BME280;1973;50.518;7.318;2022-12-07T07:37:23;101024.25;;;6.06;100.00
3917;BME280;1973;50.518;7.318;2022-12-07T07:39:50;101027.19;;;6.05;100.00
3917;BME280;1973;50.518;7.318;2022-12-07T07:42:16;101024.25;;;6.06;100.00
3917;BME280;1973;50.518;7.318;2022-12-07T07:44:43;101032.28;;;6.08;100.00
3917;BME280;1973;50.518;7.318;2022-12-07T07:47:09;101011.44;;;6.07;100.00
3917;BME280;1973;50.518;7.318;2022-12-07T07:49:36;101024.72;;;6.10;100.00
3917;BME280;1973;50.518;7.318;2022-12-07T07:52:06;101026.94;;;6.14;100.00
3917;BME280;1973;50.518;7.318;2022-12-07T07:54:32;101017.72;;;6.15;100.00
3917;BME280;1973;50.518;7.318;2022-12-07T07:56:59;101023.00;;;6.17;100.00
3917;BME280;1973;50.518;7.318;2022-12-07T07:59:25;101027.25;;;6.19;100.00
3917;BME280;1973;50.518;7.318;2022-12-07T08:01:51;101029.78;;;6.21;100.00
3917;BME280;1973;50.518;7.318;2022-12-07T08:04:18;101026.22;;;6.20;100.00
3917;BME280;1973;50.518;7.318;2022-12-07T08:06:45;101032.34;;;6.22;100.00
3917;BME280;1973;50.518;7.318;2022-12-07T08:09:11;101031.31;;;6.23;100.00
3917;BME280;1973;50.518;7.318;2022-12-07T08:11:38;101026.50;;;6.25;100.00
3917;BME280;1973;50.518;7.318;2022-12-07T08:14:04;101025.31;;;6.28;100.00
3917;BME280;1973;50.518;7.318;2022-12-07T08:16:31;101037.75;;;6.30;100.00
3917;BME280;1973;50.518;7.318;2022-12-07T08:18:57;101032.09;;;6.32;100.00
3917;BME280;1973;50.518;7.318;2022-12-07T08:21:24;101033.63;;;6.34;100.00
3917;BME280;1973;50.518;7.318;2022-12-07T08:23:50;101026.09;;;6.36;100.00
3917;BME280;1973;50.518;7.318;2022-12-07T08:26:17;101035.13;;;6.37;100.00
3917;BME280;1973;50.518;7.318;2022-12-07T08:28:43;101029.31;;;6.40;100.00
3917;BME280;1973;50.518;7.318;2022-12-07T08:31:14;101026.88;;;6.45;100.00
3917;BME280;1973;50.518;7.318;2022-12-07T08:33:41;101019.31;;;6.47;100.00
3917;BME280;1973;50.518;7.318;2022-12-07T08:36:11;101010.78;;;6.50;100.00
3917;BME280;1973;50.518;7.318;2022-12-07T08:38:39;101010.59;;;6.52;100.00
3917;BME280;1973;50.518;7.318;2022-12-07T08:41:06;101020.50;;;6.53;100.00
3917;BME280;1973;50.518;7.318;2022-12-07T08:43:33;101019.63;;;6.52;100.00
3917;BME280;1973;50.518;7.318;2022-12-07T08:46:09;101021.16;;;6.55;100.00
3917;BME280;1973;50.518;7.318;2022-12-07T08:48:40;101031.06;;;6.56;100.00
3917;BME280;1973;50.518;7.318;2022-12-07T08:51:08;101029.34;;;6.55;100.00
3917;BME280;1973;50.518;7.318;2022-12-07T08:53:35;101020.50;;;6.53;100.00
3917;BME280;1973;50.518;7.318;2022-12-07T08:56:02;101031.81;;;6.50;100.00
3917;BME280;1973;50.518;7.318;2022-12-07T08:58:29;101033.84;;;6.48;100.00
3917;BME280;1973;50.518;7.318;2022-12-07T09:00:55;101024.16;;;6.45;100.00
3917;BME280;1973;50.518;7.318;2022-12-07T09:03:22;101032.53;;;6.44;100.00
3917;BME280;1973;50.518;7.318;2022-12-07T09:05:48;101037.34;;;6.42;100.00
3917;BME280;1973;50.518;7.318;2022-12-07T09:08:15;101032.03;;;6.40;100.00
3917;BME280;1973;50.518;7.318;2022-12-07T09:10:42;101036.66;;;6.40;100.00
3917;BME280;1973;50.518;7.318;2022-12-07T09:13:09;101034.97;;;6.39;100.00
3917;BME280;1973;50.518;7.318;2022-12-07T09:15:35;101032.25;;;6.39;100.00
3917;BME280;1973;50.518;7.318;2022-12-07T09:18:02;101032.88;;;6.41;100.00
3917;BME280;1973;50.518;7.318;2022-12-07T09:20:28;101039.03;;;6.43;100.00
3917;BME280;1973;50.518;7.318;2022-12-07T09:22:55;101032.34;;;6.45;100.00
3917;BME280;1973;50.518;7.318;2022-12-07T09:25:21;101034.72;;;6.48;100.00
3917;BME280;1973;50.518;7.318;2022-12-07T09:27:48;101028.00;;;6.51;100.00
3917;BME280;1973;50.518;7.318;2022-12-07T09:30:14;101034.81;;;6.55;100.00
3917;BME280;1973;50.518;7.318;2022-12-07T09:32:40;101032.78;;;6.57;100.00
3917;BME280;1973;50.518;7.318;2022-12-07T09:35:07;101034.09;;;6.61;100.00
3917;BME280;1973;50.518;7.318;2022-12-07T09:37:33;101036.25;;;6.65;100.00
3917;BME280;1973;50.518;7.318;2022-12-07T09:40:03;101028.91;;;6.66;100.00
3917;BME280;1973;50.518;7.318;2022-12-07T09:42:39;101030.44;;;6.68;100.00
3917;BME280;1973;50.518;7.318;2022-12-07T09:45:22;101031.09;;;6.70;100.00
3917;BME280;1973;50.518;7.318;2022-12-07T09:47:50;101031.41;;;6.75;100.00
3917;BME280;1973;50.518;7.318;2022-12-07T09:50:20;101029.81;;;6.81;100.00
3917;BME280;1973;50.518;7.318;2022-12-07T09:52:48;101025.66;;;6.85;100.00
3917;BME280;1973;50.518;7.318;2022-12-07T09:55:18;101029.19;;;6.94;100.00
3917;BME280;1973;50.518;7.318;2022-12-07T09:57:46;101023.81;;;7.00;100.00
3917;BME280;1973;50.518;7.318;2022-12-07T10:00:16;101014.66;;;7.08;100.00
3917;BME280;1973;50.518;7.318;2022-12-07T10:02:47;101010.31;;;7.13;100.00
3917;BME280;1973;50.518;7.318;2022-12-07T10:05:20;101006.81;;;7.19;100.00
3917;BME280;1973;50.518;7.318;2022-12-07T10:07:50;101005.41;;;7.23;100.00
3917;BME280;1973;50.518;7.318;2022-12-07T10:10:30;101012.88;;;7.29;100.00
3917;BME280;1973;50.518;7.318;2022-12-07T10:15:57;100995.66;;;7.35;100.00
3917;BME280;1973;50.518;7.318;2022-12-07T10:18:37;100997.28;;;7.45;100.00
3917;BME280;1973;50.518;7.318;2022-12-07T10:21:14;101000.94;;;7.52;100.00
3917;BME280;1973;50.518;7.318;2022-12-07T10:26:38;100989.00;;;7.74;100.00
3917;BME280;1973;50.518;7.318;2022-12-07T10:29:22;100982.25;;;7.91;100.00
3917;BME280;1973;50.518;7.318;2022-12-07T10:32:00;100986.44;;;8.08;100.00
3917;BME280;1973;50.518;7.318;2022-12-07T10:34:32;100981.66;;;8.17;100.00
3917;BME280;1973;50.518;7.318;2022-12-07T10:42:17;100958.56;;;8.47;100.00
3917;BME280;1973;50.518;7.318;2022-12-07T10:44:44;100959.44;;;8.75;100.00
3917;BME280;1973;50.518;7.318;2022-12-07T10:50:05;100950.94;;;8.98;100.00
3917;BME280;1973;50.518;7.318;2022-12-07T10:52:52;100952.66;;;9.06;100.00
3917;BME280;1973;50.518;7.318;2022-12-07T11:01:29;100948.69;;;8.80;100.00
3917;BME280;1973;50.518;7.318;2022-12-07T11:04:18;100953.41;;;8.59;100.00
3917;BME280;1973;50.518;7.318;2022-12-07T11:07:12;100945.31;;;8.51;100.00
3917;BME280;1973;50.518;7.318;2022-12-07T11:10:17;100937.88;;;8.45;100.00
3917;BME280;1973;50.518;7.318;2022-12-07T11:13:09;100946.25;;;8.37;100.00
3917;BME280;1973;50.518;7.318;2022-12-07T11:16:02;100931.13;;;8.26;100.00
3917;BME280;1973;50.518;7.318;2022-12-07T11:21:51;100922.31;;;8.52;100.00
3917;BME280;1973;50.518;7.318;2022-12-07T11:24:40;100927.50;;;9.02;100.00
3917;BME280;1973;50.518;7.318;2022-12-07T11:30:19;100910.75;;;10.05;100.00
3917;BME280;1973;50.518;7.318;2022-12-07T11:33:11;100903.41;;;10.58;100.00
3917;BME280;1973;50.518;7.318;2022-12-07T11:36:08;100891.59;;;11.29;100.00
3917;BME280;1973;50.518;7.318;2022-12-07T11:38:46;100881.63;;;11.79;100.00
3917;BME280;1973;50.518;7.318;2022-12-07T11:41:19;100878.72;;;12.30;100.00
3917;BME280;1973;50.518;7.318;2022-12-07T11:46:24;100870.66;;;13.14;100.00
3917;BME280;1973;50.518;7.318;2022-12-07T11:49:11;100878.38;;;12.87;93.63
3917;BME280;1973;50.518;7.318;2022-12-07T11:51:41;100870.88;;;12.51;100.00
3917;BME280;1973;50.518;7.318;2022-12-07T11:54:19;100877.22;;;12.02;97.05
3917;BME280;1973;50.518;7.318;2022-12-07T11:56:49;100890.25;;;11.44;100.00
3917;BME280;1973;50.518;7.318;2022-12-07T11:59:25;100884.91;;;10.98;100.00
3917;BME280;1973;50.518;7.318;2022-12-07T12:01:57;100883.28;;;10.64;100.00
3917;BME280;1973;50.518;7.318;2022-12-07T12:04:30;100882.25;;;10.33;100.00
3917;BME280;1973;50.518;7.318;2022-12-07T12:06:59;100875.00;;;10.05;100.00
3917;BME280;1973;50.518;7.318;2022-12-07T12:09:57;100872.19;;;9.66;100.00
3917;BME280;1973;50.518;7.318;2022-12-07T12:12:29;100874.06;;;9.52;100.00
3917;BME280;1973;50.518;7.318;2022-12-07T12:16:03;100867.13;;;9.63;100.00
3917;BME280;1973;50.518;7.318;2022-12-07T12:20:56;100875.78;;;9.60;100.00
3917;BME280;1973;50.518;7.318;2022-12-07T12:23:39;100872.38;;;9.51;100.00
3917;BME280;1973;50.518;7.318;2022-12-07T12:26:13;100871.66;;;9.29;100.00
3917;BME280;1973;50.518;7.318;2022-12-07T12:28:49;100882.13;;;9.06;100.00
3917;BME280;1973;50.518;7.318;2022-12-07T12:31:32;100869.75;;;8.83;100.00
3917;BME280;1973;50.518;7.318;2022-12-07T12:34:01;100872.38;;;8.63;100.00
3917;BME280;1973;50.518;7.318;2022-12-07T12:51:53;100859.28;;;8.30;100.00
3917;BME280;1973;50.518;7.318;2022-12-07T12:54:25;100859.84;;;8.26;100.00
3917;BME280;1973;50.518;7.318;2022-12-07T12:57:18;100861.63;;;8.34;100.00
3917;BME280;1973;50.518;7.318;2022-12-07T13:02:29;100846.19;;;9.68;100.00
3917;BME280;1973;50.518;7.318;2022-12-07T13:05:02;100844.72;;;9.72;100.00
3917;BME280;1973;50.518;7.318;2022-12-07T13:20:59;100851.75;;;8.73;100.00
3917;BME280;1973;50.518;7.318;2022-12-07T13:26:17;100845.53;;;8.58;100.00
3917;BME280;1973;50.518;7.318;2022-12-07T13:31:40;100849.31;;;8.57;100.00
3917;BME280;1973;50.518;7.318;2022-12-07T13:37:01;100830.75;;;8.53;100.00
3917;BME280;1973;50.518;7.318;2022-12-07T13:39:28;100830.31;;;8.56;100.00
3917;BME280;1973;50.518;7.318;2022-12-07T13:41:56;100826.72;;;8.55;100.00
3917;BME280;1973;50.518;7.318;2022-12-07T13:44:25;100828.22;;;8.58;100.00
3917;BME280;1973;50.518;7.318;2022-12-07T13:47:05;100823.56;;;8.58;100.00
3917;BME280;1973;50.518;7.318;2022-12-07T13:49:38;100825.34;;;8.72;100.00
3917;BME280;1973;50.518;7.318;2022-12-07T13:52:15;100824.06;;;8.68;100.00
3917;BME280;1973;50.518;7.318;2022-12-07T13:54:48;100825.00;;;8.82;100.00
3917;BME280;1973;50.518;7.318;2022-12-07T13:57:18;100829.44;;;8.83;100.00
3917;BME280;1973;50.518;7.318;2022-12-07T13:59:45;100828.88;;;9.01;100.00
3917;BME280;1973;50.518;7.318;2022-12-07T14:02:27;100825.28;;;9.00;100.00
3917;BME280;1973;50.518;7.318;2022-12-07T14:05:14;100822.00;;;8.77;100.00
3917;BME280;1973;50.518;7.318;2022-12-07T14:10:36;100825.16;;;8.74;100.00
3917;BME280;1973;50.518;7.318;2022-12-07T14:13:37;100817.50;;;8.63;100.00
3917;BME280;1973;50.518;7.318;2022-12-07T14:22:37;100827.53;;;8.21;100.00
3917;BME280;1973;50.518;7.318;2022-12-07T14:27:47;100826.03;;;8.19;100.00
3917;BME280;1973;50.518;7.318;2022-12-07T14:30:16;100822.47;;;8.25;100.00
3917;BME280;1973;50.518;7.318;2022-12-07T14:32:44;100821.31;;;8.34;100.00
3917;BME280;1973;50.518;7.318;2022-12-07T14:35:16;100812.44;;;8.32;100.00
3917;BME280;1973;50.518;7.318;2022-12-07T14:37:45;100816.81;;;8.26;100.00
3917;BME280;1973;50.518;7.318;2022-12-07T14:40:23;100818.66;;;8.19;100.00
3917;BME280;1973;50.518;7.318;2022-12-07T14:42:56;100812.88;;;8.08;100.00
3917;BME280;1973;50.518;7.318;2022-12-07T14:45:24;100812.56;;;7.96;100.00
3917;BME280;1973;50.518;7.318;2022-12-07T14:47:50;100813.72;;;7.87;100.00
3917;BME280;1973;50.518;7.318;2022-12-07T14:50:39;100815.97;;;7.77;100.00
3917;BME280;1973;50.518;7.318;2022-12-07T14:53:31;100815.47;;;7.67;100.00
3917;BME280;1973;50.518;7.318;2022-12-07T14:55:59;100807.59;;;7.57;100.00
3917;BME280;1973;50.518;7.318;2022-12-07T14:58:26;100810.06;;;7.52;100.00
3917;BME280;1973;50.518;7.318;2022-12-07T15:00:52;100811.66;;;7.47;100.00
3917;BME280;1973;50.518;7.318;2022-12-07T15:03:19;100801.50;;;7.41;100.00
3917;BME280;1973;50.518;7.318;2022-12-07T15:05:45;100796.16;;;7.32;100.00
3917;BME280;1973;50.518;7.318;2022-12-07T15:08:12;100794.66;;;7.30;100.00
3917;BME280;1973;50.518;7.318;2022-12-07T15:10:39;100788.72;;;7.26;100.00
3917;BME280;1973;50.518;7.318;2022-12-07T15:13:06;100794.59;;;7.23;100.00
3917;BME280;1973;50.518;7.318;2022-12-07T15:15:54;100792.25;;;7.20;100.00
3917;BME280;1973;50.518;7.318;2022-12-07T15:18:22;100782.91;;;7.15;100.00
3917;BME280;1973;50.518;7.318;2022-12-07T15:20:49;100792.38;;;7.12;100.00
3917;BME280;1973;50.518;7.318;2022-12-07T15:23:16;100788.94;;;7.10;100.00